METAR (acronimo di METeorological Air Report) è un messaggio meteo emesso nella maggior parte dei casi in ambito aeroportuale

YSSY - Sydney, Australia
Ultimo Aggiornamento: Mercoledì 25 Novembre 2020 21:00 CET
Sereno
Sereno
 Wind from Nord-Nord-Ovest
Vento: Nord-Nord-Ovest 13 km/h
Temperatura: 20°C
Punto di Rugiada: 14°C
Umidità: 69%
Barometro: 1011 hPa
Condizioni: Sereno
Visibilità: superiore a 10 km
2020/11/25 20:00 YSSY 252000Z 34007KT CAVOK 20/14 Q1011
YMML - Melbourne, Australia
Ultimo Aggiornamento: Mercoledì 25 Novembre 2020 21:00 CET
Prevalentemente Nuvoloso
Prevalentemente Nuvoloso
 Wind from Ovest-Sud-Ovest
Vento: Ovest-Sud-Ovest 13 km/h
Temperatura: 15°C
Punto di Rugiada: 13°C
Umidità: 88%
Barometro: 1013 hPa
Nuvole: Prevalentemente Nuvoloso
Visibilità: 10 km
Nuvole nel Dettaglio: Prevalentemente Nuvoloso 305 m
2020/11/25 20:00 YMML 252000Z 24007KT 9999 BKN010 15/13 Q1013
YBBN - Brisbane, Australia
Ultimo Aggiornamento: Mercoledì 25 Novembre 2020 21:00 CET
Qualche Nuvola
Qualche Nuvola
 Wind from Sud-Ovest
Vento: Sud-Ovest 9 km/h
Temperatura: 22°C
Punto di Rugiada: 17°C
Umidità: 73%
Barometro: 1013 hPa
Nuvole: Qualche Nuvola
Visibilità: 10 km
Nuvole nel Dettaglio: Qualche Nuvola 762 m
2020/11/25 20:00 YBBN 252000Z 22005KT 9999 FEW025 22/17 Q1013
 
YPPH - Perth, Australia
Ultimo Aggiornamento: Mercoledì 25 Novembre 2020 21:00 CET
Sereno
Sereno
 Wind from Nord-Nord-Est
Vento: Nord-Nord-Est 7 km/h
Temperatura: 12°C
Punto di Rugiada: 10°C
Umidità: 88%
Barometro: 1009 hPa
Condizioni: Sereno
Visibilità: superiore a 10 km
2020/11/25 20:00 YPPH 252000Z 02004KT 010V100 CAVOK 12/10 Q1009
YBAS - Alice Springs, Australia
Ultimo Aggiornamento: Mercoledì 25 Novembre 2020 21:00 CET
Sereno
Sereno
 Wind from Est-Sud-Est
Vento: Est-Sud-Est 11 km/h
Temperatura: 22°C
Punto di Rugiada: 4°C
Umidità: 31%
Barometro: 1010 hPa
Nuvole: Sereno
Visibilità: 10 km
2020/11/25 20:00 YBAS 252000Z AUTO 12006KT 9999 // NCD 22/04 Q1010
NZAA - Auckland, New Zealand
Ultimo Aggiornamento: Mercoledì 25 Novembre 2020 21:00 CET
Parzialmente Nuvoloso
Parzialmente Nuvoloso
 Wind from Nord
Vento: Nord 24 km/h
Temperatura: 20°C
Punto di Rugiada: 15°C
Umidità: 73%
Barometro: 1007 hPa
Nuvole: Parzialmente Nuvoloso
Visibilità: 10 km
Nuvole nel Dettaglio: Qualche Nuvola 823 m
Parzialmente Nuvoloso 1280 m
2020/11/25 20:00 NZAA 252000Z AUTO 01013KT 9999 FEW027/// SCT042/// 20/15 Q1007 NOSIG
 
NTAA - Tahiti, French Polynesia
Ultimo Aggiornamento: Mercoledì 25 Novembre 2020 21:00 CET
Pioggia Leggera, Parzialmente Nuvoloso
Pioggia Leggera, Parzialmente Nuvoloso
 Wind from Nord
Vento: Nord 28 km/h
Temperatura: 26°C
Punto di Rugiada: 23°C
Umidità: 84%
Barometro: 1011 hPa
Condizioni: Pioggia Leggera
Nuvole: Parzialmente Nuvoloso
Visibilità: 8 km
Nuvole nel Dettaglio: Qualche Nuvola 305 m
Qualche Nuvola 610 m
Parzialmente Nuvoloso 1006 m
2020/11/25 20:00 NTAA 252000Z 35015KT 310V030 8000 -RA FEW010 FEW020CB SCT033 26/23 Q1011 TEMPO 34015G25KT 2000 SHRA FEW016TCU BKN040
NFFN - Nadi, Fiji
Ultimo Aggiornamento: Mercoledì 25 Novembre 2020 21:00 CET
Qualche Nuvola
Qualche Nuvola
 Wind from Sud-Est
Vento: Sud-Est 9 km/h
Temperatura: 29°C
Heat Index: 32°C
Punto di Rugiada: 22°C
Umidità: 66%
Barometro: 1010 hPa
Nuvole: Qualche Nuvola
Visibilità: 10 km
Nuvole nel Dettaglio: Qualche Nuvola 914 m
2020/11/25 20:00 NFFN 252000Z 13005KT 9999 FEW030 29/22 Q1010 NOSIG
PKMJ - Majuro, Marshall Islands
Ultimo Aggiornamento: Lunedì 23 Novembre 2020 23:53 CET
Dati non Recenti
Nuvoloso
Nuvoloso
 Wind from Est-Nord-Est
Vento: Est-Nord-Est 33 km/h
Temperatura: 29°C
Heat Index: 34°C
Punto di Rugiada: 25°C
Umidità: 79%
Barometro: 1009.5 hPa
Nuvole: Nuvoloso
Visibilità: 24 km
Nuvole nel Dettaglio: Parzialmente Nuvoloso 427 m
Prevalentemente Nuvoloso 1372 m
Prevalentemente Nuvoloso 3658 m
Nuvoloso 9144 m
2020/11/23 22:53 PKMJ 232253Z 06018KT 15SM SCT014 BKN045 BKN120 OVC300 29/25 A2981 RMK LAST
 
PGUM - Hagatna, Guam, United States
Ultimo Aggiornamento: Mercoledì 25 Novembre 2020 20:54 CET
Sereno
Sereno
 Wind from Est-Nord-Est
Vento: Est-Nord-Est 13 km/h
Temperatura: 26°C
Punto di Rugiada: 24°C
Umidità: 89%
Barometro: 1010.8 hPa
Nuvole: Sereno
Visibilità: 16 km
2020/11/25 19:54 PGUM 251954Z 07007KT 10SM CLR 26/24 A2985 RMK AO2 RAB17E26 SLP100 P0000 T02610239
AYPY - Port Moresby, Papua New Guinea
Ultimo Aggiornamento: Mercoledì 25 Novembre 2020 20:00 CET
Dati non Recenti
Pioggia Leggera, Nuvoloso
Pioggia Leggera, Nuvoloso
 Wind from Nord-Ovest
Vento: Nord-Ovest 9 km/h
Temperatura: 23°C
Punto di Rugiada: 22°C
Umidità: 94%
Barometro: 1006 hPa
Condizioni: Pioggia Leggera
Nuvole: Nuvoloso
Visibilità: 10 km
Nuvole nel Dettaglio: Qualche Nuvola 1219 m
Nuvoloso 3962 m
2020/11/25 19:00 AYPY 251900Z 31005KT 9999 -RA FEW040 OVC130 23/22 Q1006
AGGH - Honiara, Guadalcanal, Solomon Islands
Ultimo Aggiornamento: Mercoledì 25 Novembre 2020 21:00 CET
Parzialmente Nuvoloso
Parzialmente Nuvoloso
 Wind from Sud-Sud-Ovest
Vento: Sud-Sud-Ovest 4 km/h
Temperatura: 23°C
Punto di Rugiada: 23°C
Umidità: 100%
Barometro: 1009 hPa
Nuvole: Parzialmente Nuvoloso
Visibilità: 10 km
Nuvole nel Dettaglio: Qualche Nuvola 457 m
Parzialmente Nuvoloso 853 m
2020/11/25 20:00 AGGH 252000Z 20002KT 9999 FEW015 SCT028 23/23 Q1009